Time;durP1;ratioP1;P1;durP2;ratioP2;P2;SDS_P1;SDS_P2;PMS_P1;PMS_P2;Temp;Humidity;BMP_temperature;BMP_pressure;BME280_temperature;BME280_humidity;BME280_pressure;Samples;Min_cycle;Max_cycle;Signal;HPM_P1;HPM_P2
2022/12/05 00:01:18;;;;;;;0.50;0.10;;;4.00;1.00;;;;;;6086357;23;20411;-77
2022/12/05 00:03:47;;;;;;;0.70;0.50;;;4.00;1.00;;;;;;6092594;23;20468;-77
2022/12/05 00:06:15;;;;;;;2.03;1.07;;;4.00;1.00;;;;;;6093533;23;20424;-77
2022/12/05 00:08:43;;;;;;;0.87;0.87;;;3.90;1.00;;;;;;6091912;23;20515;-78
2022/12/05 00:11:13;;;;;;;1.40;1.30;;;3.90;1.00;;;;;;6091759;23;20404;-78
2022/12/05 00:13:41;;;;;;;0.50;0.10;;;3.90;1.00;;;;;;6085212;23;20468;-79
2022/12/05 00:16:10;;;;;;;0.70;0.43;;;3.90;1.00;;;;;;6083332;23;20427;-77
2022/12/05 00:18:40;;;;;;;0.50;0.10;;;3.90;1.00;;;;;;6086755;23;20431;-79
2022/12/05 00:21:13;;;;;;;27.00;24.63;;;3.90;1.00;;;;;;6077001;23;20408;-77
2022/12/05 00:23:41;;;;;;;0.50;0.10;;;3.90;1.00;;;;;;6075198;23;20408;-78
2022/12/05 00:26:10;;;;;;;0.50;0.23;;;3.90;1.00;;;;;;6084426;23;21002;-77
2022/12/05 00:28:38;;;;;;;0.70;0.60;;;3.90;1.00;;;;;;6076245;23;20428;-79
2022/12/05 00:31:08;;;;;;;0.53;0.30;;;3.90;1.00;;;;;;6081322;23;20400;-80
2022/12/05 00:33:36;;;;;;;0.50;0.20;;;3.80;1.00;;;;;;6087370;23;20419;-78
2022/12/05 00:36:07;;;;;;;0.50;0.10;;;3.90;1.00;;;;;;6085778;23;20410;-78
2022/12/05 00:38:36;;;;;;;0.50;0.23;;;3.90;1.00;;;;;;6085616;23;20847;-78
2022/12/05 00:41:04;;;;;;;0.50;0.10;;;3.90;1.00;;;;;;6085056;23;20410;-78
2022/12/05 00:43:33;;;;;;;1.33;0.83;;;3.90;1.00;;;;;;6079053;23;20490;-78
2022/12/05 00:46:02;;;;;;;0.53;0.20;;;3.90;1.00;;;;;;6078602;23;20443;-78
2022/12/05 00:48:30;;;;;;;0.50;0.20;;;3.80;1.00;;;;;;6077680;23;20435;-79
2022/12/05 00:51:01;;;;;;;0.60;0.40;;;3.90;1.00;;;;;;6083240;23;20404;-78
2022/12/05 00:53:31;;;;;;;0.67;0.67;;;3.90;1.00;;;;;;6085568;23;20403;-77
2022/12/05 00:56:02;;;;;;;0.50;0.10;;;3.90;1.00;;;;;;6090824;23;20420;-77
2022/12/05 00:58:30;;;;;;;0.50;0.20;;;3.90;1.00;;;;;;6089831;23;20432;-77
2022/12/05 05:01:50;;;;;;;0.50;0.10;;;4.60;1.00;;;;;;6022703;23;20962;-78
2022/12/05 05:04:25;;;;;;;0.50;0.10;;;4.60;1.00;;;;;;6073657;23;20899;-77
2022/12/05 05:06:53;;;;;;;1.40;1.30;;;4.60;1.00;;;;;;6074326;23;20522;-77
2022/12/05 05:09:21;;;;;;;0.90;0.40;;;4.50;1.00;;;;;;6074565;23;20418;-77
2022/12/05 05:11:49;;;;;;;0.50;0.10;;;4.50;1.00;;;;;;6075525;23;20471;-78
2022/12/05 05:14:17;;;;;;;0.50;0.10;;;4.50;1.00;;;;;;6073873;23;20905;-77
2022/12/05 05:16:47;;;;;;;0.50;0.10;;;;;;;;;;6073138;23;20478;-79
2022/12/05 05:19:15;;;;;;;0.50;0.10;;;4.40;1.00;;;;;;6076950;23;20514;-78
2022/12/05 05:21:43;;;;;;;0.80;0.80;;;4.40;1.00;;;;;;6079173;23;20404;-79
2022/12/05 05:24:12;;;;;;;0.63;0.47;;;4.40;4.30;;;;;;6077826;23;20408;-80
2022/12/05 05:26:41;;;;;;;2.20;2.00;;;4.40;8.00;;;;;;6077727;23;20446;-80
2022/12/05 05:29:10;;;;;;;0.60;0.10;;;4.40;8.90;;;;;;6076803;23;20884;-79
2022/12/05 05:31:39;;;;;;;0.50;0.10;;;4.40;12.30;;;;;;6076112;23;20426;-80
2022/12/05 05:34:10;;;;;;;1.37;1.27;;;4.40;18.00;;;;;;6076051;23;20968;-80
2022/12/05 05:36:38;;;;;;;0.50;0.20;;;4.40;13.20;;;;;;6075970;23;20435;-80
2022/12/05 05:39:11;;;;;;;0.50;0.10;;;4.40;9.90;;;;;;6072996;23;20467;-80
2022/12/05 05:41:38;;;;;;;4.30;1.33;;;4.40;11.40;;;;;;6077374;23;20419;-80
2022/12/05 05:44:06;;;;;;;0.50;0.10;;;4.40;11.30;;;;;;6075710;23;20435;-80
2022/12/05 05:46:35;;;;;;;0.70;0.30;;;4.40;11.60;;;;;;6074282;23;20435;-81
2022/12/05 05:49:04;;;;;;;2.37;2.27;;;4.40;12.70;;;;;;6073675;23;20408;-80
2022/12/05 05:51:34;;;;;;;0.50;0.10;;;4.40;13.10;;;;;;6072289;23;20410;-80
2022/12/05 05:54:02;;;;;;;0.50;0.10;;;4.40;22.40;;;;;;6071558;23;20420;-80
2022/12/05 05:56:30;;;;;;;0.50;0.10;;;4.40;33.30;;;;;;6071082;23;20447;-79
2022/12/05 05:58:59;;;;;;;0.50;0.30;;;4.50;44.10;;;;;;6074351;23;20476;-80
2022/12/05 06:01:28;;;;;;;1.47;0.40;;;4.50;44.20;;;;;;6074875;23;20893;-80
2022/12/05 06:03:56;;;;;;;1.83;1.73;;;4.40;41.00;;;;;;6075492;23;20396;-79
2022/12/05 06:06:25;;;;;;;0.50;0.10;;;4.30;37.20;;;;;;6078971;23;21015;-80
2022/12/05 06:08:54;;;;;;;0.50;0.10;;;4.30;38.20;;;;;;6081621;23;20463;-79
2022/12/05 06:11:24;;;;;;;0.50;0.20;;;4.30;45.80;;;;;;6078446;23;20408;-77
2022/12/05 06:13:55;;;;;;;0.50;0.10;;;4.40;44.40;;;;;;6076141;23;20412;-82
2022/12/05 06:16:23;;;;;;;0.50;0.10;;;;;;;;;;6079158;23;20491;-79
2022/12/05 06:18:52;;;;;;;0.50;0.10;;;4.40;46.40;;;;;;6077551;23;20396;-80
2022/12/05 06:21:20;;;;;;;0.80;0.53;;;4.40;45.90;;;;;;6080732;23;20427;-79
2022/12/05 06:23:49;;;;;;;0.50;0.20;;;4.40;45.30;;;;;;6085516;23;20412;-79
2022/12/05 06:26:20;;;;;;;0.50;0.20;;;4.40;45.50;;;;;;6085207;23;20411;-79
2022/12/05 06:28:48;;;;;;;0.50;0.10;;;4.40;44.10;;;;;;6082682;23;20476;-79
2022/12/05 06:31:17;;;;;;;0.53;0.20;;;4.30;47.60;;;;;;6081773;23;20392;-80
2022/12/05 06:33:46;;;;;;;2.30;2.03;;;;;;;;;;6081933;23;20407;-80
2022/12/05 06:36:16;;;;;;;0.50;0.10;;;4.40;51.20;;;;;;6080438;23;20420;-80
2022/12/05 06:38:44;;;;;;;0.50;0.10;;;;;;;;;;6083590;23;20520;-79
2022/12/05 06:41:14;;;;;;;1.60;1.50;;;4.40;54.90;;;;;;6081694;23;20506;-79
2022/12/05 06:43:44;;;;;;;0.80;0.60;;;4.30;52.90;;;;;;6081168;23;20436;-79
2022/12/05 06:46:13;;;;;;;1.17;0.70;;;4.20;51.90;;;;;;6079978;23;20423;-79
2022/12/05 06:48:41;;;;;;;1.30;1.10;;;4.20;58.10;;;;;;6080259;23;20448;-78
2022/12/05 06:51:11;;;;;;;1.60;1.13;;;4.10;55.70;;;;;;6081878;23;20412;-79
2022/12/05 06:53:39;;;;;;;4.00;2.13;;;4.00;70.80;;;;;;6078463;23;20775;-81
2022/12/05 06:56:12;;;;;;;0.73;0.73;;;4.00;77.50;;;;;;6079428;23;20438;-78
2022/12/05 06:58:41;;;;;;;1.03;0.77;;;4.00;84.20;;;;;;6078552;23;20404;-79
2022/12/05 07:03:58;;;;;;;0.50;0.10;;;4.00;92.10;;;;;;6079064;23;20458;-79
2022/12/05 07:06:27;;;;;;;0.67;0.40;;;;;;;;;;6077515;23;20507;-79
2022/12/05 07:08:55;;;;;;;0.90;0.90;;;4.10;93.50;;;;;;6076589;23;20457;-80
2022/12/05 07:11:23;;;;;;;2.87;2.23;;;;;;;;;;6075428;23;20467;-79
2022/12/05 07:13:51;;;;;;;2.00;1.90;;;;;;;;;;6077144;23;20415;-78
2022/12/05 07:16:21;;;;;;;3.93;2.17;;;4.20;96.20;;;;;;6087235;23;20435;-79
2022/12/05 07:18:49;;;;;;;4.43;4.23;;;4.20;95.40;;;;;;6077516;23;20420;-79
2022/12/05 07:21:17;;;;;;;6.87;4.33;;;;;;;;;;6077930;23;20404;-78
2022/12/05 07:23:46;;;;;;;0.60;0.57;;;4.10;95.00;;;;;;6077491;23;20448;-78
2022/12/05 07:26:16;;;;;;;4.90;4.60;;;4.00;96.20;;;;;;6074395;23;20424;-76
2022/12/05 07:28:44;;;;;;;1.13;1.03;;;4.10;97.20;;;;;;6067786;23;20451;-78
2022/12/05 07:31:14;;;;;;;3.63;1.90;;;4.10;99.80;;;;;;6069723;23;20444;-80
2022/12/05 07:33:44;;;;;;;0.90;0.90;;;4.10;99.90;;;;;;6071499;23;20492;-78
2022/12/05 07:36:14;;;;;;;0.50;0.33;;;4.10;99.90;;;;;;6074293;23;20756;-78
2022/12/05 07:38:43;;;;;;;0.50;0.10;;;4.10;99.90;;;;;;6074051;23;20416;-79
2022/12/05 07:41:15;;;;;;;0.50;0.10;;;4.20;99.90;;;;;;6074602;23;20479;-79
2022/12/05 07:43:43;;;;;;;0.50;0.10;;;4.20;99.90;;;;;;6076104;23;20412;-78
2022/12/05 07:46:11;;;;;;;0.50;0.10;;;4.20;99.90;;;;;;6078560;23;20507;-78
2022/12/05 07:48:40;;;;;;;0.77;0.77;;;4.30;99.90;;;;;;6083853;23;20449;-78
2022/12/05 07:51:10;;;;;;;2.93;1.90;;;4.30;99.90;;;;;;6080218;23;20426;-80
2022/12/05 07:53:40;;;;;;;0.80;0.80;;;4.30;99.90;;;;;;6079522;23;20443;-79
2022/12/05 07:56:10;;;;;;;0.50;0.10;;;4.40;99.90;;;;;;6078775;23;20982;-80
2022/12/05 07:58:38;;;;;;;2.83;2.73;;;4.40;99.90;;;;;;6078567;23;20403;-79
2022/12/05 08:01:07;;;;;;;0.50;0.13;;;4.50;99.90;;;;;;6078375;23;20467;-80
2022/12/05 08:03:36;;;;;;;0.50;0.10;;;4.50;99.90;;;;;;6076600;23;20453;-81
2022/12/05 08:06:05;;;;;;;2.77;1.60;;;4.60;99.90;;;;;;6076634;23;20442;-79
2022/12/05 08:08:34;;;;;;;0.70;0.27;;;4.60;99.90;;;;;;6078794;23;20459;-81
2022/12/05 08:11:07;;;;;;;6.73;6.40;;;4.60;99.90;;;;;;6077669;23;20439;-80
2022/12/05 08:13:35;;;;;;;0.50;0.10;;;4.60;99.90;;;;;;6076661;23;20408;-80
2022/12/05 08:16:03;;;;;;;1.17;0.57;;;4.60;99.90;;;;;;6076950;23;21019;-80
2022/12/05 08:18:32;;;;;;;0.50;0.10;;;4.60;99.90;;;;;;6077124;23;20404;-80
2022/12/05 08:21:03;;;;;;;1.13;0.97;;;4.60;97.60;;;;;;6074193;23;20491;-80
2022/12/05 08:23:35;;;;;;;0.50;0.10;;;4.50;92.40;;;;;;6076805;23;20419;-81
2022/12/05 08:26:04;;;;;;;0.50;0.30;;;4.50;90.50;;;;;;6077113;23;21024;-80
2022/12/05 08:28:33;;;;;;;5.73;3.50;;;4.50;88.20;;;;;;6080121;23;20439;-80
2022/12/05 08:31:06;;;;;;;4.00;3.80;;;4.50;83.20;;;;;;6077492;23;20412;-80
2022/12/05 08:33:34;;;;;;;0.57;0.40;;;4.50;87.20;;;;;;6075852;23;20800;-81
2022/12/05 08:36:02;;;;;;;2.20;1.80;;;4.50;89.80;;;;;;6074294;23;21015;-80
2022/12/05 08:38:31;;;;;;;1.43;0.83;;;4.50;92.00;;;;;;6078245;23;20404;-80
2022/12/05 08:41:02;;;;;;;3.00;2.80;;;4.60;87.80;;;;;;6074436;23;20420;-80
2022/12/05 08:43:31;;;;;;;0.50;0.10;;;4.60;86.00;;;;;;6075331;23;20770;-80
2022/12/05 08:45:59;;;;;;;10.23;3.07;;;4.60;82.70;;;;;;6074790;23;20434;-80
2022/12/05 08:48:28;;;;;;;2.20;0.63;;;4.60;83.50;;;;;;6075725;23;20527;-80
2022/12/05 08:50:56;;;;;;;1.50;1.40;;;4.60;83.70;;;;;;6075686;23;20412;-80
2022/12/05 08:53:25;;;;;;;0.60;0.43;;;4.70;84.10;;;;;;6072736;23;20451;-81
2022/12/05 08:55:55;;;;;;;15.53;14.37;;;4.70;82.50;;;;;;6074859;23;20738;-80
2022/12/05 08:58:26;;;;;;;0.60;0.37;;;;;;;;;;6072857;23;20415;-80
2022/12/05 09:00:54;;;;;;;2.77;1.90;;;4.60;65.30;;;;;;6078023;23;20420;-80
2022/12/05 09:03:22;;;;;;;1.53;1.20;;;4.60;66.10;;;;;;6073415;23;20463;-80
2022/12/05 09:05:50;;;;;;;0.50;0.10;;;4.60;71.30;;;;;;6073496;23;20435;-79
2022/12/05 09:08:21;;;;;;;1.40;1.30;;;4.60;71.30;;;;;;6075544;23;20451;-80
2022/12/05 09:10:49;;;;;;;3.23;2.93;;;4.70;71.50;;;;;;6074932;23;20943;-80
2022/12/05 09:13:17;;;;;;;1.80;1.70;;;4.70;71.50;;;;;;6071225;23;20471;-80
2022/12/05 09:15:47;;;;;;;25.43;4.67;;;4.80;71.60;;;;;;6075345;23;20440;-81
2022/12/05 09:18:14;;;;;;;0.50;0.10;;;4.80;71.60;;;;;;6083916;23;20385;-77
2022/12/05 09:20:42;;;;;;;0.50;0.20;;;4.80;70.00;;;;;;6086113;23;20488;-81
2022/12/05 09:23:10;;;;;;;0.80;0.60;;;4.80;66.50;;;;;;6075521;23;20415;-79
2022/12/05 09:25:42;;;;;;;1.33;1.23;;;4.80;63.90;;;;;;6075930;23;20479;-80
2022/12/05 09:28:10;;;;;;;0.50;0.10;;;4.80;61.90;;;;;;6075976;23;20758;-80
2022/12/05 09:30:38;;;;;;;0.50;0.10;;;4.80;61.70;;;;;;6076224;23;20482;-80
2022/12/05 09:33:07;;;;;;;0.50;0.30;;;4.80;67.40;;;;;;6075301;23;20498;-80
2022/12/05 09:35:39;;;;;;;0.50;0.10;;;4.90;62.70;;;;;;6074499;23;20427;-79
2022/12/05 09:38:07;;;;;;;0.50;0.10;;;4.90;62.30;;;;;;6080311;23;20407;-79
2022/12/05 09:40:40;;;;;;;0.60;0.40;;;5.00;65.60;;;;;;6077138;23;20416;-80
2022/12/05 09:43:20;;;;;;;0.60;0.30;;;5.00;72.80;;;;;;6077977;23;20400;-80
2022/12/05 09:45:56;;;;;;;0.50;0.10;;;5.10;65.50;;;;;;6080464;23;20424;-80
2022/12/05 09:48:25;;;;;;;9.43;3.40;;;5.10;59.20;;;;;;6077285;23;20477;-80
2022/12/05 09:50:57;;;;;;;0.50;0.10;;;5.10;65.70;;;;;;6077895;23;20403;-79
2022/12/05 09:53:29;;;;;;;0.50;0.10;;;5.00;50.90;;;;;;6083518;23;20412;-81
2022/12/05 09:56:03;;;;;;;83.70;7.90;;;5.10;48.90;;;;;;6083348;23;20424;-78
2022/12/05 09:58:41;;;;;;;12.90;2.00;;;5.00;46.70;;;;;;6082082;23;20427;-79
2022/12/05 10:01:23;;;;;;;2.70;2.50;;;5.00;50.40;;;;;;6078938;23;20711;-79
2022/12/05 10:04:11;;;;;;;0.50;0.10;;;5.00;49.10;;;;;;6078815;23;20475;-79
2022/12/05 10:06:43;;;;;;;1.70;1.63;;;5.10;45.20;;;;;;6080500;23;20428;-82
2022/12/05 10:09:27;;;;;;;2.07;1.20;;;5.10;45.70;;;;;;6082953;23;20439;-80
2022/12/05 10:12:01;;;;;;;2.40;1.13;;;4.80;47.80;;;;;;6080579;23;20408;-82
2022/12/05 10:14:39;;;;;;;0.87;0.40;;;5.10;50.50;;;;;;6083040;23;20408;-80
2022/12/05 10:17:15;;;;;;;0.50;0.20;;;5.10;52.20;;;;;;6084000;23;20447;-80
2022/12/05 10:19:47;;;;;;;0.60;0.40;;;5.10;56.10;;;;;;6084424;23;20471;-81
2022/12/05 10:22:22;;;;;;;0.77;0.63;;;5.10;54.30;;;;;;6083981;23;20411;-79
2022/12/05 10:24:53;;;;;;;11.73;11.20;;;5.00;54.50;;;;;;6081950;23;20388;-80
2022/12/05 10:27:24;;;;;;;0.50;0.10;;;5.00;57.10;;;;;;6077736;23;20432;-80
2022/12/05 10:30:01;;;;;;;0.60;0.40;;;5.10;58.60;;;;;;6075878;23;20822;-81
2022/12/05 10:32:35;;;;;;;0.50;0.10;;;5.10;61.00;;;;;;6077316;23;20403;-81
2022/12/05 10:35:16;;;;;;;2.90;2.80;;;5.20;68.50;;;;;;6077881;23;20419;-81
2022/12/05 10:37:48;;;;;;;1.30;1.20;;;5.20;64.20;;;;;;6073999;23;20411;-81
2022/12/05 10:40:17;;;;;;;0.50;0.20;;;5.20;60.40;;;;;;6076771;23;20392;-80
2022/12/05 10:42:47;;;;;;;0.70;0.63;;;5.20;58.90;;;;;;6072946;23;20503;-80
2022/12/05 10:45:21;;;;;;;0.50;0.10;;;5.30;55.80;;;;;;6075835;23;20440;-80
2022/12/05 10:47:53;;;;;;;0.50;0.10;;;5.20;54.70;;;;;;6072767;23;20399;-80
2022/12/05 10:50:29;;;;;;;0.50;0.10;;;5.20;52.20;;;;;;6075332;23;20447;-81
2022/12/05 10:53:03;;;;;;;0.50;0.10;;;5.30;51.40;;;;;;6075174;23;20787;-79
2022/12/05 10:55:33;;;;;;;3.33;1.90;;;;;;;;;;6074185;23;20400;-78
2022/12/05 10:58:12;;;;;;;2.70;1.37;;;5.10;39.20;;;;;;6075699;23;20411;-80
2022/12/05 11:00:51;;;;;;;0.80;0.30;;;5.10;37.70;;;;;;6075060;23;20392;-80
2022/12/05 11:03:28;;;;;;;3.60;1.70;;;5.00;35.70;;;;;;6075734;23;20396;-81
2022/12/05 11:06:01;;;;;;;0.60;0.37;;;5.00;37.70;;;;;;6077589;23;20447;-79
2022/12/05 11:08:31;;;;;;;0.50;0.10;;;5.00;44.00;;;;;;6077985;23;20424;-80
2022/12/05 11:11:22;;;;;;;4.87;2.40;;;5.00;46.90;;;;;;6075234;23;20804;-79
2022/12/05 11:13:54;;;;;;;2.70;0.53;;;5.00;43.60;;;;;;6074811;23;20427;-79
2022/12/05 11:16:24;;;;;;;2.30;2.17;;;5.10;49.30;;;;;;6075684;23;20440;-79
2022/12/05 11:18:52;;;;;;;0.50;0.20;;;5.10;49.30;;;;;;6085737;23;20415;-79
2022/12/05 11:21:21;;;;;;;0.50;0.17;;;5.10;47.90;;;;;;6085828;23;20404;-79
2022/12/05 11:23:49;;;;;;;0.50;0.20;;;5.10;37.50;;;;;;6075873;23;20947;-79
2022/12/05 11:26:32;;;;;;;0.50;0.10;;;5.10;35.90;;;;;;6079085;23;20515;-79
2022/12/05 11:29:00;;;;;;;3.57;3.37;;;5.20;31.60;;;;;;6075765;23;20461;-80
2022/12/05 11:31:29;;;;;;;0.60;0.40;;;5.10;35.50;;;;;;6090593;23;20453;-79
2022/12/05 11:34:02;;;;;;;0.50;0.10;;;5.10;33.40;;;;;;6080427;23;20743;-79
2022/12/05 11:36:39;;;;;;;3.30;3.10;;;5.20;33.00;;;;;;6079949;23;20431;-80
2022/12/05 11:39:10;;;;;;;0.67;0.60;;;5.20;41.80;;;;;;6078930;23;20404;-79
2022/12/05 11:41:53;;;;;;;0.50;0.10;;;5.20;46.70;;;;;;6078153;23;20719;-80
2022/12/05 11:44:46;;;;;;;9.53;9.07;;;5.30;50.30;;;;;;6077993;23;20503;-79
2022/12/05 11:47:26;;;;;;;0.50;0.17;;;5.30;47.40;;;;;;6079046;23;20434;-80
2022/12/05 11:50:20;;;;;;;2.23;1.47;;;5.30;52.00;;;;;;6089926;23;20454;-79
2022/12/05 11:53:02;;;;;;;0.50;0.10;;;5.40;52.90;;;;;;6083801;23;20685;-79
2022/12/05 11:55:36;;;;;;;6.33;1.53;;;5.20;49.00;;;;;;6082144;23;20611;-79
2022/12/05 11:58:46;;;;;;;1.13;0.93;;;5.20;50.60;;;;;;6083245;23;20406;-79
2022/12/05 12:01:25;;;;;;;0.60;0.40;;;5.10;64.20;;;;;;6087640;23;20398;-80
2022/12/05 12:04:29;;;;;;;3.03;2.77;;;5.10;78.60;;;;;;6081221;23;20483;-79
2022/12/05 12:07:08;;;;;;;0.60;0.40;;;5.10;89.60;;;;;;6032179;23;20435;-80
2022/12/05 12:09:49;;;;;;;0.87;0.67;;;5.00;93.10;;;;;;6079524;23;20431;-79
2022/12/05 12:12:28;;;;;;;0.50;0.10;;;5.00;99.10;;;;;;6076333;23;20394;-79
2022/12/05 12:15:09;;;;;;;0.50;0.20;;;5.10;99.90;;;;;;6078025;23;20415;-79
2022/12/05 12:17:47;;;;;;;1.33;0.60;;;5.00;99.90;;;;;;6076564;23;20494;-79
2022/12/05 12:20:27;;;;;;;4.00;3.07;;;5.00;99.90;;;;;;6076279;23;20407;-80
2022/12/05 12:23:24;;;;;;;2.53;2.33;;;4.90;99.90;;;;;;6076006;23;20395;-79
2022/12/05 12:26:06;;;;;;;6.37;2.53;;;4.90;99.90;;;;;;6071289;23;20435;-79
2022/12/05 12:28:41;;;;;;;4.60;2.13;;;4.90;99.90;;;;;;6074330;23;20727;-79
2022/12/05 12:31:28;;;;;;;2.60;1.07;;;4.90;99.90;;;;;;6075379;23;20423;-80
2022/12/05 12:34:04;;;;;;;1.03;0.97;;;4.80;99.90;;;;;;6073029;23;20912;-79
2022/12/05 12:36:38;;;;;;;3.47;2.10;;;4.90;99.90;;;;;;6074780;23;20505;-78
2022/12/05 12:39:17;;;;;;;0.77;0.60;;;4.90;99.90;;;;;;6077342;23;20554;-79
2022/12/05 12:42:06;;;;;;;7.33;6.83;;;4.80;99.90;;;;;;6077607;23;20490;-79
2022/12/05 12:45:01;;;;;;;0.60;0.40;;;4.80;99.90;;;;;;6076049;23;20412;-78
2022/12/05 12:47:42;;;;;;;2.47;2.27;;;4.90;99.90;;;;;;6080499;23;20444;-78
2022/12/05 12:50:18;;;;;;;0.50;0.17;;;5.00;99.90;;;;;;6079739;23;20506;-78
2022/12/05 12:53:14;;;;;;;3.50;3.30;;;5.10;99.90;;;;;;6074094;23;20896;-78
2022/12/05 12:55:47;;;;;;;1.57;1.37;;;5.10;99.90;;;;;;6084928;23;20428;-78
2022/12/05 12:58:32;;;;;;;1.87;1.77;;;5.10;99.90;;;;;;6085772;23;20412;-78
2022/12/05 13:01:12;;;;;;;1.90;1.80;;;5.20;99.90;;;;;;6081671;23;20485;-77
2022/12/05 13:03:43;;;;;;;1.50;1.23;;;5.20;99.90;;;;;;6082410;23;20436;-79
2022/12/05 13:06:24;;;;;;;0.50;0.20;;;5.10;99.90;;;;;;6082956;23;20431;-79
2022/12/05 13:08:56;;;;;;;2.10;1.17;;;5.10;99.90;;;;;;6081049;23;20462;-78
2022/12/05 13:11:24;;;;;;;2.10;1.50;;;5.10;99.90;;;;;;6081350;23;20432;-78
2022/12/05 13:13:56;;;;;;;0.83;0.83;;;5.10;99.90;;;;;;6079804;23;20412;-77
2022/12/05 13:16:28;;;;;;;0.87;0.60;;;5.10;99.90;;;;;;6081964;23;20478;-78
2022/12/05 13:18:57;;;;;;;0.57;0.37;;;5.10;99.90;;;;;;6080993;23;20404;-78
2022/12/05 13:21:26;;;;;;;0.70;0.67;;;5.20;99.90;;;;;;6075143;23;20415;-78
2022/12/05 13:23:58;;;;;;;1.10;0.73;;;5.20;99.90;;;;;;6074855;23;20423;-80
2022/12/05 13:26:26;;;;;;;4.57;2.27;;;5.30;99.90;;;;;;6076287;23;20707;-80
2022/12/05 13:28:57;;;;;;;0.50;0.10;;;5.30;99.90;;;;;;6076215;23;20904;-79
2022/12/05 13:31:38;;;;;;;0.60;0.47;;;5.30;99.90;;;;;;6075998;23;20439;-79
2022/12/05 13:34:29;;;;;;;0.50;0.10;;;5.30;99.90;;;;;;6076131;23;20419;-79
2022/12/05 13:42:37;;;;;;;1.57;1.47;;;5.50;99.90;;;;;;6076491;23;20478;-79
2022/12/05 13:45:10;;;;;;;1.37;0.77;;;5.50;99.90;;;;;;6076297;23;20466;-78
2022/12/05 13:47:59;;;;;;;0.60;0.47;;;5.60;99.90;;;;;;6074982;23;20750;-79
2022/12/05 13:50:33;;;;;;;1.03;0.40;;;5.60;99.90;;;;;;6078522;23;20428;-80
2022/12/05 13:53:04;;;;;;;0.50;0.10;;;5.50;99.90;;;;;;6077645;23;20419;-80
2022/12/05 13:55:35;;;;;;;0.50;0.10;;;5.60;99.90;;;;;;6078477;23;20422;-79
2022/12/05 13:58:24;;;;;;;0.50;0.20;;;5.60;99.90;;;;;;6080364;23;20419;-80
2022/12/05 14:01:34;;;;;;;1.83;0.93;;;5.60;99.90;;;;;;6074022;23;20410;-79
2022/12/05 14:04:41;;;;;;;0.70;0.30;;;5.50;98.30;;;;;;6071214;23;20932;-79
2022/12/05 14:07:10;;;;;;;0.50;0.10;;;5.50;99.90;;;;;;6072568;23;20439;-79
2022/12/05 14:09:59;;;;;;;0.50;0.20;;;5.50;99.90;;;;;;6070966;23;20414;-79
2022/12/05 14:12:52;;;;;;;2.57;2.27;;;5.50;99.90;;;;;;6067154;23;20447;-79
2022/12/05 14:15:41;;;;;;;5.03;4.73;;;5.50;99.90;;;;;;6072801;23;20407;-79
2022/12/05 14:18:15;;;;;;;0.50;0.30;;;5.50;99.90;;;;;;6069940;23;20419;-79
2022/12/05 14:21:02;;;;;;;0.50;0.20;;;5.60;99.90;;;;;;6071471;23;20415;-79
2022/12/05 14:23:55;;;;;;;6.10;5.77;;;5.60;99.90;;;;;;6072736;23;20392;-78
2022/12/05 14:26:40;;;;;;;3.33;2.00;;;5.70;99.90;;;;;;6081462;23;20428;-79
2022/12/05 14:29:26;;;;;;;0.50;0.13;;;5.70;99.90;;;;;;6083687;23;20387;-80
2022/12/05 14:32:06;;;;;;;1.07;1.07;;;5.70;99.90;;;;;;6077259;23;20502;-77
2022/12/05 14:34:47;;;;;;;0.50;0.10;;;5.70;99.90;;;;;;6073086;23;20388;-79
2022/12/05 14:37:26;;;;;;;0.50;0.10;;;5.70;99.90;;;;;;6072022;23;20437;-79
2022/12/05 14:39:57;;;;;;;20.73;4.47;;;5.70;99.90;;;;;;6068977;23;20470;-79
2022/12/05 14:42:37;;;;;;;0.50;0.10;;;5.70;99.90;;;;;;6072041;23;20435;-77
2022/12/05 14:45:26;;;;;;;0.50;0.10;;;5.70;99.90;;;;;;6073633;23;20440;-79
2022/12/05 14:47:56;;;;;;;0.90;0.63;;;5.70;99.90;;;;;;6073956;23;20395;-80
2022/12/05 14:50:46;;;;;;;2.63;1.70;;;5.70;99.90;;;;;;6075250;23;20412;-79
2022/12/05 14:53:22;;;;;;;0.50;0.30;;;5.70;99.90;;;;;;6075303;23;20411;-80
2022/12/05 14:55:54;;;;;;;0.60;0.43;;;5.60;99.90;;;;;;6074051;23;20440;-79
2022/12/05 14:58:32;;;;;;;2.10;0.73;;;5.60;99.90;;;;;;6073574;23;20919;-79
2022/12/05 15:01:05;;;;;;;1.67;0.87;;;5.60;99.90;;;;;;6072990;23;20407;-79
2022/12/05 15:03:36;;;;;;;1.13;1.03;;;5.60;99.90;;;;;;6073667;23;20419;-81
2022/12/05 15:06:14;;;;;;;0.50;0.10;;;5.60;99.90;;;;;;6072805;23;20427;-79
2022/12/05 15:08:48;;;;;;;1.83;0.73;;;5.60;99.90;;;;;;6069745;23;20403;-79
2022/12/05 15:11:27;;;;;;;0.60;0.30;;;5.70;99.90;;;;;;6069922;23;20905;-79
2022/12/05 15:13:59;;;;;;;0.50;0.20;;;5.70;99.90;;;;;;6072104;23;20411;-79
2022/12/05 15:16:29;;;;;;;0.50;0.10;;;5.70;99.90;;;;;;6069953;23;20775;-79
2022/12/05 15:19:03;;;;;;;2.47;2.33;;;5.80;99.90;;;;;;6070194;23;20399;-79
2022/12/05 15:21:35;;;;;;;1.07;0.97;;;5.80;99.90;;;;;;6071081;23;20875;-79
2022/12/05 15:24:11;;;;;;;0.50;0.20;;;5.80;99.90;;;;;;6070338;23;20411;-80
2022/12/05 15:26:41;;;;;;;0.60;0.40;;;5.70;99.90;;;;;;6073280;23;20420;-80
2022/12/05 15:29:24;;;;;;;0.50;0.17;;;5.70;99.90;;;;;;6070586;23;20734;-80
2022/12/05 15:31:55;;;;;;;0.50;0.10;;;5.70;99.90;;;;;;6073693;23;20469;-80
2022/12/05 15:34:29;;;;;;;0.50;0.10;;;5.70;99.90;;;;;;6078251;23;20388;-78
2022/12/05 15:37:01;;;;;;;0.60;0.40;;;5.50;99.90;;;;;;6076760;23;20436;-80
2022/12/05 15:39:51;;;;;;;0.80;0.43;;;5.60;99.90;;;;;;6086052;23;20411;-79
2022/12/05 15:42:19;;;;;;;0.50;0.10;;;5.60;99.90;;;;;;6083409;23;20424;-80
2022/12/05 15:45:15;;;;;;;0.50;0.10;;;5.70;99.90;;;;;;6083366;23;20396;-81
2022/12/05 15:47:45;;;;;;;2.23;1.80;;;5.70;99.90;;;;;;6084146;23;20466;-80
2022/12/05 15:50:13;;;;;;;1.60;1.50;;;5.70;99.90;;;;;;6077566;23;20514;-80
2022/12/05 15:52:45;;;;;;;1.13;1.13;;;5.60;99.90;;;;;;6074182;23;20439;-80
2022/12/05 15:55:20;;;;;;;0.50;0.30;;;6.70;99.90;;;;;;6072763;23;20406;-79
2022/12/05 15:57:52;;;;;;;0.50;0.20;;;4.90;99.90;;;;;;6073995;23;20411;-80
2022/12/05 16:00:22;;;;;;;0.50;0.20;;;6.40;99.90;;;;;;6074331;23;20411;-79
2022/12/05 16:02:57;;;;;;;2.60;0.73;;;5.70;99.90;;;;;;6077760;23;20415;-77
2022/12/05 16:05:30;;;;;;;0.50;0.20;;;5.60;99.90;;;;;;6070978;23;21047;-77
2022/12/05 16:08:01;;;;;;;0.83;0.83;;;5.60;99.90;;;;;;6072349;23;20399;-77
2022/12/05 16:10:30;;;;;;;0.50;0.10;;;5.70;99.90;;;;;;6070952;23;20418;-76
2022/12/05 16:13:04;;;;;;;0.50;0.20;;;5.70;99.90;;;;;;6071067;23;20435;-77
2022/12/05 16:15:33;;;;;;;0.57;0.30;;;5.80;99.90;;;;;;6071264;23;20410;-76
2022/12/05 16:18:04;;;;;;;0.50;0.20;;;5.70;99.90;;;;;;6069291;23;20427;-78
2022/12/05 16:20:34;;;;;;;1.23;1.13;;;7.50;99.90;;;;;;6068370;23;20494;-77
2022/12/05 16:23:04;;;;;;;0.60;0.50;;;5.80;99.90;;;;;;6068882;23;20435;-76
2022/12/05 16:25:40;;;;;;;0.50;0.10;;;5.90;99.90;;;;;;6068359;23;20464;-77
2022/12/05 16:28:19;;;;;;;2.40;1.03;;;5.90;99.90;;;;;;6068942;23;20755;-76
2022/12/05 16:30:56;;;;;;;0.50;0.10;;;5.90;99.90;;;;;;6069696;23;20411;-77
2022/12/05 16:33:25;;;;;;;3.40;2.53;;;5.80;99.90;;;;;;6071459;23;20530;-76
2022/12/05 16:35:53;;;;;;;0.50;0.10;;;5.80;99.90;;;;;;6071965;23;20458;-77
2022/12/05 16:38:24;;;;;;;4.40;2.90;;;5.80;99.90;;;;;;6068840;23;20412;-76
2022/12/05 16:40:59;;;;;;;0.60;0.40;;;4.20;99.90;;;;;;6068679;23;20408;-76
2022/12/05 16:43:40;;;;;;;0.50;0.10;;;5.90;99.90;;;;;;6067845;23;20794;-77
2022/12/05 16:46:42;;;;;;;0.50;0.20;;;5.90;99.90;;;;;;6065475;23;20423;-77
2022/12/05 16:49:17;;;;;;;0.50;0.10;;;5.90;99.90;;;;;;6070036;23;20799;-77
2022/12/05 16:51:53;;;;;;;1.90;0.73;;;5.90;99.90;;;;;;6069732;23;20419;-76
2022/12/05 16:54:21;;;;;;;1.17;0.57;;;5.90;99.90;;;;;;6070943;23;20395;-77
2022/12/05 16:56:50;;;;;;;1.37;1.27;;;6.00;99.90;;;;;;6067632;23;20444;-78
2022/12/05 16:59:23;;;;;;;8.73;4.43;;;6.00;99.90;;;;;;6068530;23;20411;-77
2022/12/05 17:01:51;;;;;;;9.60;1.53;;;5.90;99.90;;;;;;6068686;23;20384;-76
2022/12/05 17:04:19;;;;;;;2.30;1.53;;;5.80;99.90;;;;;;6067759;23;20703;-77
2022/12/05 17:06:47;;;;;;;4.60;0.70;;;5.80;99.90;;;;;;6068550;23;20479;-78
2022/12/05 17:09:15;;;;;;;0.60;0.50;;;5.70;99.90;;;;;;6069922;23;20463;-77
2022/12/05 17:11:45;;;;;;;0.80;0.50;;;5.80;99.90;;;;;;6068277;23;20415;-76
2022/12/05 17:14:17;;;;;;;0.83;0.83;;;5.80;99.90;;;;;;6067871;23;20969;-77
2022/12/05 17:16:45;;;;;;;0.50;0.10;;;5.90;99.90;;;;;;6067579;23;20459;-78
2022/12/05 17:19:21;;;;;;;0.50;0.10;;;;;;;;;;6068066;23;20416;-78
2022/12/05 17:21:52;;;;;;;1.53;0.63;;;6.00;99.90;;;;;;6068071;23;20404;-76
2022/12/05 17:24:21;;;;;;;15.87;14.90;;;6.00;99.90;;;;;;6067536;23;20423;-77
2022/12/05 17:26:48;;;;;;;0.50;0.30;;;6.00;99.90;;;;;;6067821;23;20424;-76
2022/12/05 17:29:17;;;;;;;1.27;0.93;;;6.10;99.90;;;;;;6067991;23;20408;-76
2022/12/05 17:31:45;;;;;;;0.70;0.67;;;6.10;99.90;;;;;;6067707;23;20408;-76
2022/12/05 17:34:16;;;;;;;0.50;0.10;;;6.10;99.90;;;;;;6067779;23;20963;-77
2022/12/05 17:36:44;;;;;;;1.47;0.93;;;6.10;99.90;;;;;;6068440;23;20424;-75
2022/12/05 17:39:12;;;;;;;0.50;0.20;;;6.10;99.90;;;;;;6067470;23;20434;-78
2022/12/05 17:41:40;;;;;;;6.83;6.43;;;6.10;99.90;;;;;;6067574;23;20396;-77